createdAt,value
2018-07-20T00:00:08.120Z,16.62
2018-07-20T00:02:36.287Z,16.76
2018-07-20T00:05:05.136Z,16.66
2018-07-20T00:07:33.210Z,16.65
2018-07-20T00:10:01.381Z,16.65
2018-07-20T00:12:29.382Z,16.64
2018-07-20T00:14:57.621Z,16.65
2018-07-20T00:17:25.847Z,16.67
2018-07-20T00:19:53.946Z,16.66
2018-07-20T00:22:22.048Z,16.68
2018-07-20T00:24:50.181Z,16.79
2018-07-20T00:27:18.321Z,16.95
2018-07-20T00:29:46.340Z,16.83
2018-07-20T00:32:14.445Z,16.76
2018-07-20T00:34:42.496Z,16.72
2018-07-20T00:37:10.644Z,16.70
2018-07-20T00:39:38.763Z,16.70
2018-07-20T00:42:06.916Z,16.69
2018-07-20T00:44:34.968Z,16.69
2018-07-20T00:47:03.041Z,16.69
2018-07-20T00:49:31.203Z,16.81
2018-07-20T00:51:59.271Z,16.73
2018-07-20T00:54:27.440Z,16.69
2018-07-20T00:56:55.574Z,16.69
2018-07-20T00:59:23.673Z,16.67
2018-07-20T01:01:51.823Z,16.65
2018-07-20T01:04:19.878Z,16.74
2018-07-20T01:06:47.995Z,16.71
2018-07-20T01:09:16.097Z,16.70
2018-07-20T01:11:44.225Z,16.69
2018-07-20T01:14:12.209Z,16.69
2018-07-20T01:16:40.426Z,16.68
2018-07-20T01:19:08.448Z,16.68
2018-07-20T01:21:36.482Z,16.67
2018-07-20T01:24:05.634Z,16.65
2018-07-20T01:26:33.777Z,16.64
2018-07-20T01:29:01.904Z,16.65
2018-07-20T01:31:30.048Z,16.64
2018-07-20T01:33:58.092Z,16.64
2018-07-20T01:36:26.162Z,16.67
2018-07-20T01:38:54.338Z,16.67
2018-07-20T01:41:22.455Z,16.68
2018-07-20T01:43:50.596Z,16.69
2018-07-20T01:46:18.735Z,16.68
2018-07-20T01:48:46.753Z,16.67
2018-07-20T01:51:14.884Z,16.70
2018-07-20T01:53:43.012Z,16.69
2018-07-20T01:56:11.199Z,16.70
2018-07-20T01:58:39.240Z,16.70
2018-07-20T02:01:07.348Z,16.70
2018-07-20T02:03:35.534Z,16.70
2018-07-20T02:06:03.614Z,16.69
2018-07-20T02:08:31.624Z,16.70
2018-07-20T02:11:00.691Z,16.71
2018-07-20T02:13:28.816Z,16.72
2018-07-20T02:15:57.575Z,16.72
2018-07-20T02:18:25.694Z,16.72
2018-07-20T02:20:54.016Z,16.72
2018-07-20T02:23:23.257Z,16.84
2018-07-20T02:25:51.488Z,16.77
2018-07-20T02:28:19.601Z,16.74
2018-07-20T02:30:47.661Z,16.72
2018-07-20T02:33:15.818Z,16.72
2018-07-20T02:35:43.966Z,16.73
2018-07-20T02:38:12.098Z,16.73
2018-07-20T02:40:40.186Z,16.74
2018-07-20T02:43:08.196Z,16.74
2018-07-20T02:45:36.319Z,16.75
2018-07-20T02:48:04.614Z,16.73
2018-07-20T02:50:32.629Z,16.73
2018-07-20T02:53:00.727Z,16.70
2018-07-20T02:55:28.784Z,16.72
2018-07-20T02:57:56.958Z,16.67
2018-07-20T03:00:25.021Z,16.69
2018-07-20T03:02:53.017Z,16.70
2018-07-20T03:05:21.116Z,16.71
2018-07-20T03:07:49.204Z,16.71
2018-07-20T03:10:17.283Z,16.71
2018-07-20T03:12:45.260Z,16.71
2018-07-20T03:15:13.321Z,16.71
2018-07-20T03:17:41.379Z,16.72
2018-07-20T03:20:09.417Z,16.72
2018-07-20T03:22:37.665Z,16.71
2018-07-20T03:25:05.866Z,16.72
2018-07-20T03:27:33.927Z,16.73
2018-07-20T03:30:02.293Z,16.74
2018-07-20T03:32:30.368Z,16.76
2018-07-20T03:34:58.507Z,16.91
2018-07-20T03:37:26.583Z,17.03
2018-07-20T03:39:55.219Z,16.90
2018-07-20T03:42:23.335Z,16.85
2018-07-20T03:44:51.351Z,16.81
2018-07-20T03:47:19.503Z,16.80
2018-07-20T03:49:47.506Z,16.79
2018-07-20T03:52:15.778Z,16.80
2018-07-20T03:54:43.807Z,16.84
2018-07-20T03:57:12.168Z,16.91
2018-07-20T03:59:40.319Z,16.89
2018-07-20T04:02:08.504Z,16.90
2018-07-20T04:04:36.619Z,16.95
2018-07-20T04:07:04.893Z,16.95
2018-07-20T04:09:32.910Z,16.88
2018-07-20T04:12:01.205Z,16.90
2018-07-20T04:14:29.443Z,16.89
2018-07-20T04:16:57.566Z,16.87
2018-07-20T04:19:25.622Z,16.89
2018-07-20T04:21:53.788Z,16.90
2018-07-20T04:24:21.860Z,16.93
2018-07-20T04:26:49.942Z,16.97
2018-07-20T04:29:18.134Z,17.00
2018-07-20T04:31:46.544Z,17.02
2018-07-20T04:34:14.705Z,17.04
2018-07-20T04:36:42.989Z,17.04
2018-07-20T04:39:13.612Z,17.16
2018-07-20T04:41:42.540Z,17.30
2018-07-20T04:44:10.807Z,17.33
2018-07-20T04:46:39.098Z,17.22
2018-07-20T04:49:07.621Z,17.26
2018-07-20T04:51:35.812Z,17.21
2018-07-20T04:54:04.473Z,17.20
2018-07-20T04:56:32.634Z,17.22
2018-07-20T04:59:00.772Z,17.26
2018-07-20T05:01:28.867Z,17.29
2018-07-20T05:03:56.993Z,17.32
2018-07-20T05:06:25.189Z,17.37
2018-07-20T05:08:53.214Z,17.46
2018-07-20T05:11:21.319Z,17.53
2018-07-20T05:13:49.454Z,17.56
2018-07-20T05:16:17.933Z,17.67
2018-07-20T05:18:46.032Z,17.74
2018-07-20T05:21:14.222Z,17.74
2018-07-20T05:23:42.339Z,17.85
2018-07-20T05:26:10.389Z,17.92
2018-07-20T05:28:38.542Z,18.05
2018-07-20T05:31:06.777Z,18.24
2018-07-20T05:33:34.879Z,18.51
2018-07-20T05:36:03.252Z,18.61
2018-07-20T05:38:31.732Z,18.82
2018-07-20T05:41:00.541Z,18.80
2018-07-20T05:43:28.918Z,18.54
2018-07-20T05:45:57.208Z,18.43
2018-07-20T05:48:25.962Z,18.42
2018-07-20T05:50:54.483Z,18.57
2018-07-20T05:53:22.913Z,18.76
2018-07-20T05:55:51.311Z,18.70
2018-07-20T05:58:19.463Z,18.77
2018-07-20T06:00:47.670Z,18.87
2018-07-20T06:03:15.862Z,18.95
2018-07-20T06:05:44.006Z,19.03
2018-07-20T06:08:12.135Z,19.28
2018-07-20T06:10:40.552Z,19.45
2018-07-20T06:13:08.856Z,19.58
2018-07-20T06:15:37.120Z,19.61
2018-07-20T06:18:05.378Z,19.67
2018-07-20T06:20:33.761Z,19.80
2018-07-20T06:23:02.163Z,19.89
2018-07-20T06:25:30.746Z,20.21
2018-07-20T06:27:58.927Z,20.48
2018-07-20T06:30:27.109Z,21.01
2018-07-20T06:32:55.337Z,21.50
2018-07-20T06:35:23.536Z,21.77
2018-07-20T06:37:51.690Z,21.87
2018-07-20T06:40:19.725Z,21.97
2018-07-20T06:42:47.957Z,21.96
2018-07-20T06:45:16.141Z,22.12
2018-07-20T06:47:44.290Z,22.57
2018-07-20T06:50:15.709Z,22.16
2018-07-20T06:52:44.505Z,22.36
2018-07-20T06:55:12.808Z,22.64
2018-07-20T06:57:41.075Z,22.14
2018-07-20T07:00:09.536Z,21.94
2018-07-20T07:02:37.710Z,21.50
2018-07-20T07:05:07.640Z,21.38
2018-07-20T07:07:35.784Z,21.24
2018-07-20T07:10:04.177Z,21.44
2018-07-20T07:12:32.440Z,21.33
2018-07-20T07:15:01.027Z,21.57
2018-07-20T07:17:29.243Z,21.73
2018-07-20T07:19:57.386Z,22.05
2018-07-20T07:22:25.490Z,22.10
2018-07-20T07:24:53.575Z,21.97
2018-07-20T07:27:21.747Z,22.06
2018-07-20T07:29:50.426Z,22.28
2018-07-20T07:32:18.599Z,22.36
2018-07-20T07:34:47.015Z,22.51
2018-07-20T07:37:15.406Z,22.95
2018-07-20T07:39:43.636Z,22.65
2018-07-20T07:42:11.915Z,22.88
2018-07-20T07:44:40.241Z,23.38
2018-07-20T07:47:08.534Z,23.96
2018-07-20T07:49:37.156Z,24.87
2018-07-20T07:52:06.016Z,25.27
2018-07-20T07:54:34.399Z,24.96
2018-07-20T07:57:02.804Z,25.20
2018-07-20T07:59:31.192Z,24.92
2018-07-20T08:01:59.546Z,24.57
2018-07-20T08:04:27.891Z,23.97
2018-07-20T08:06:56.249Z,23.76
2018-07-20T08:09:25.222Z,23.70
2018-07-20T08:11:53.855Z,23.43
2018-07-20T08:14:22.309Z,23.19
2018-07-20T08:16:51.168Z,23.20
2018-07-20T08:19:19.589Z,23.35
2018-07-20T08:21:47.795Z,23.36
2018-07-20T08:24:15.925Z,23.44
2018-07-20T08:26:44.258Z,23.99
2018-07-20T08:29:12.716Z,24.38
2018-07-20T08:31:40.920Z,24.62
2018-07-20T08:34:09.267Z,24.87
2018-07-20T08:36:37.686Z,25.39
2018-07-20T08:39:08.449Z,26.67
2018-07-20T08:41:36.644Z,26.28
2018-07-20T08:44:05.073Z,25.47
2018-07-20T08:46:33.399Z,24.94
2018-07-20T08:49:01.556Z,24.73
2018-07-20T08:51:29.835Z,25.57
2018-07-20T08:53:58.130Z,25.71
2018-07-20T08:56:26.307Z,25.20
2018-07-20T08:58:54.387Z,24.85
2018-07-20T09:01:22.511Z,24.31
2018-07-20T09:03:50.636Z,24.47
2018-07-20T09:06:18.727Z,24.62
2018-07-20T09:08:46.872Z,25.19
2018-07-20T09:11:15.121Z,25.49
2018-07-20T09:13:43.417Z,25.58
2018-07-20T09:16:11.640Z,26.29
2018-07-20T09:18:39.935Z,26.65
2018-07-20T09:21:08.170Z,27.25
2018-07-20T09:23:36.687Z,27.74
2018-07-20T09:26:05.102Z,26.64
2018-07-20T09:28:33.769Z,25.98
2018-07-20T09:31:02.339Z,25.91
2018-07-20T09:33:31.671Z,25.87
2018-07-20T09:36:00.741Z,26.11
2018-07-20T09:38:29.216Z,26.53
2018-07-20T09:40:57.590Z,27.01
2018-07-20T09:43:25.796Z,27.46
2018-07-20T09:45:54.130Z,28.08
2018-07-20T09:48:22.860Z,27.29
2018-07-20T09:50:51.064Z,27.29
2018-07-20T09:53:19.653Z,26.92
2018-07-20T09:55:48.075Z,26.77
2018-07-20T09:58:16.572Z,26.95
2018-07-20T10:00:49.012Z,27.37
2018-07-20T10:03:17.983Z,27.58
2018-07-20T10:05:46.735Z,26.88
2018-07-20T10:08:15.311Z,26.09
2018-07-20T10:10:43.706Z,25.93
2018-07-20T10:13:11.953Z,26.02
2018-07-20T10:15:40.440Z,25.88
2018-07-20T10:18:08.531Z,26.36
2018-07-20T10:20:36.878Z,26.57
2018-07-20T10:23:05.025Z,26.50
2018-07-20T10:25:33.513Z,26.67
2018-07-20T10:28:01.682Z,27.24
2018-07-20T10:30:30.333Z,26.94
2018-07-20T10:32:58.658Z,26.73
2018-07-20T10:35:26.925Z,26.47
2018-07-20T10:37:55.254Z,26.97
2018-07-20T10:40:26.362Z,26.97
2018-07-20T10:42:56.185Z,26.98
2018-07-20T10:45:24.590Z,27.33
2018-07-20T10:47:52.859Z,26.91
2018-07-20T10:50:21.040Z,26.35
2018-07-20T10:52:50.224Z,25.98
2018-07-20T10:55:22.342Z,26.02
2018-07-20T10:57:51.671Z,26.12
2018-07-20T11:00:20.369Z,26.40
2018-07-20T11:02:48.538Z,25.92
2018-07-20T11:05:16.667Z,26.67
2018-07-20T11:07:45.042Z,27.24
2018-07-20T11:10:13.341Z,27.84
2018-07-20T11:12:41.607Z,27.64
2018-07-20T11:15:09.805Z,27.42
2018-07-20T11:17:38.119Z,26.90
2018-07-20T11:20:06.380Z,27.03
2018-07-20T11:22:34.600Z,26.65
2018-07-20T11:25:02.853Z,26.35
2018-07-20T11:27:31.225Z,26.87
2018-07-20T11:29:59.504Z,26.92
2018-07-20T11:32:27.887Z,27.41
2018-07-20T11:34:56.296Z,27.79
2018-07-20T11:37:24.499Z,27.71
2018-07-20T11:39:53.034Z,27.60
2018-07-20T11:42:21.367Z,26.87
2018-07-20T11:44:50.132Z,26.67
2018-07-20T11:47:18.739Z,26.25
2018-07-20T11:49:47.446Z,26.88
2018-07-20T11:52:15.650Z,27.22
2018-07-20T11:54:44.444Z,27.32
2018-07-20T11:57:12.770Z,27.05
2018-07-20T11:59:41.559Z,27.39
2018-07-20T12:02:10.093Z,27.16
2018-07-20T12:04:38.295Z,26.73
2018-07-20T12:07:06.540Z,27.22
2018-07-20T12:09:34.936Z,26.96
2018-07-20T12:12:03.125Z,26.42
2018-07-20T12:14:31.256Z,26.82
2018-07-20T12:16:59.560Z,26.64
2018-07-20T12:19:27.838Z,25.87
2018-07-20T12:21:56.076Z,25.81
2018-07-20T12:24:24.471Z,26.60
2018-07-20T12:26:53.293Z,26.86
2018-07-20T12:29:21.493Z,27.14
2018-07-20T12:31:49.870Z,26.54
2018-07-20T12:34:18.367Z,26.13
2018-07-20T12:36:46.652Z,26.32
2018-07-20T12:39:14.913Z,27.19
2018-07-20T12:41:43.085Z,27.47
2018-07-20T12:44:11.309Z,27.65
2018-07-20T12:46:39.867Z,27.13
2018-07-20T12:49:08.448Z,26.25
2018-07-20T12:51:36.930Z,26.51
2018-07-20T12:54:05.819Z,26.66
2018-07-20T12:56:34.204Z,26.86
2018-07-20T12:59:02.611Z,26.79
2018-07-20T13:01:31.144Z,26.39
2018-07-20T13:04:01.519Z,26.43
2018-07-20T13:06:33.545Z,26.75
2018-07-20T13:09:02.091Z,26.96
2018-07-20T13:11:30.277Z,26.55
2018-07-20T13:13:58.454Z,26.40
2018-07-20T13:16:26.758Z,26.39
2018-07-20T13:18:55.118Z,26.02
2018-07-20T13:21:23.702Z,26.07
2018-07-20T13:23:52.061Z,26.20
2018-07-20T13:26:20.310Z,26.30
2018-07-20T13:28:48.880Z,26.26
2018-07-20T13:31:17.332Z,26.14
2018-07-20T13:33:45.560Z,25.73
2018-07-20T13:36:14.072Z,25.57
2018-07-20T13:38:42.394Z,25.89
2018-07-20T13:41:10.920Z,26.11
2018-07-20T13:43:39.096Z,26.12
2018-07-20T13:46:07.425Z,25.99
2018-07-20T13:48:35.802Z,25.91
2018-07-20T13:51:04.699Z,25.94
2018-07-20T13:53:32.905Z,26.07
2018-07-20T13:56:01.214Z,26.01
2018-07-20T13:58:29.619Z,25.92
2018-07-20T14:00:58.141Z,25.84
2018-07-20T14:03:26.438Z,25.69
2018-07-20T14:05:54.752Z,25.56
2018-07-20T14:08:23.087Z,25.89
2018-07-20T14:10:51.428Z,25.96
2018-07-20T14:13:19.858Z,25.68
2018-07-20T14:15:48.266Z,25.35
2018-07-20T14:18:16.588Z,25.20
2018-07-20T14:20:44.833Z,25.43
2018-07-20T14:23:13.186Z,25.64
2018-07-20T14:25:41.786Z,25.42
2018-07-20T14:28:10.161Z,25.42
2018-07-20T14:30:38.519Z,25.24
2018-07-20T14:33:07.243Z,25.33
2018-07-20T14:35:35.664Z,25.19
2018-07-20T14:38:04.186Z,24.99
2018-07-20T14:40:32.891Z,24.93
2018-07-20T14:43:01.198Z,25.23
2018-07-20T14:45:29.477Z,25.22
2018-07-20T14:47:57.620Z,25.28
2018-07-20T14:50:25.813Z,25.21
2018-07-20T14:52:54.236Z,25.27
2018-07-20T14:55:22.490Z,25.06
2018-07-20T14:57:50.630Z,25.17
2018-07-20T15:00:18.706Z,24.93
2018-07-20T15:02:47.000Z,24.98
2018-07-20T15:05:15.335Z,24.99
2018-07-20T15:07:43.621Z,25.02
2018-07-20T15:10:12.087Z,25.01
2018-07-20T15:12:40.331Z,25.06
2018-07-20T15:15:09.320Z,24.82
2018-07-20T15:17:37.726Z,24.65
2018-07-20T15:20:06.578Z,24.62
2018-07-20T15:22:35.028Z,24.64
2018-07-20T15:25:03.306Z,24.55
2018-07-20T15:27:31.367Z,24.47
2018-07-20T15:29:59.434Z,24.58
2018-07-20T15:44:01.966Z,24.28
2018-07-20T15:46:30.183Z,24.23
2018-07-20T15:48:58.322Z,24.15
2018-07-20T15:51:55.484Z,24.22
2018-07-20T15:53:54.671Z,24.29
2018-07-20T15:56:22.689Z,24.21
2018-07-20T15:58:50.891Z,24.13
2018-07-20T16:01:19.016Z,24.13
2018-07-20T16:03:47.112Z,24.00
2018-07-20T16:06:15.380Z,23.86
2018-07-20T16:08:43.572Z,23.70
2018-07-20T16:11:11.751Z,23.61
2018-07-20T16:13:40.058Z,23.57
2018-07-20T16:16:08.348Z,23.39
2018-07-20T16:18:36.617Z,23.31
2018-07-20T16:21:04.880Z,23.36
2018-07-20T16:23:33.170Z,23.30
2018-07-20T16:26:01.573Z,23.13
2018-07-20T16:28:29.723Z,23.19
2018-07-20T16:30:58.052Z,22.94
2018-07-20T16:33:26.331Z,22.90
2018-07-20T16:35:54.718Z,22.98
2018-07-20T16:38:23.078Z,22.85
2018-07-20T16:40:51.378Z,22.71
2018-07-20T16:43:19.608Z,22.66
2018-07-20T16:45:47.807Z,22.56
2018-07-20T16:48:15.893Z,22.41
2018-07-20T16:50:44.174Z,22.39
2018-07-20T16:53:12.437Z,22.31
2018-07-20T16:55:40.606Z,22.28
2018-07-20T16:58:09.035Z,22.10
2018-07-20T17:00:37.400Z,22.14
2018-07-20T17:03:05.668Z,22.13
2018-07-20T17:05:34.056Z,22.05
2018-07-20T17:08:02.453Z,21.95
2018-07-20T17:10:30.870Z,21.87
2018-07-20T17:12:59.811Z,21.79
2018-07-20T17:15:28.297Z,21.67
2018-07-20T17:17:56.524Z,21.57
2018-07-20T17:20:24.786Z,21.56
2018-07-20T17:22:52.852Z,21.49
2018-07-20T17:25:21.144Z,21.47
2018-07-20T17:30:45.964Z,21.20
2018-07-20T17:33:14.440Z,21.05
2018-07-20T17:35:42.618Z,20.96
2018-07-20T17:38:10.987Z,20.85
2018-07-20T17:40:39.462Z,20.70
2018-07-20T17:49:06.658Z,20.31
2018-07-20T17:51:35.427Z,20.17
2018-07-20T17:54:04.316Z,20.08
2018-07-20T17:56:32.564Z,20.00
2018-07-20T17:59:01.708Z,19.95
2018-07-20T18:01:30.460Z,19.81
2018-07-20T18:03:59.152Z,19.69
2018-07-20T18:06:27.814Z,19.60
2018-07-20T18:08:56.163Z,19.49
2018-07-20T18:11:24.620Z,19.41
2018-07-20T18:13:52.955Z,19.33
2018-07-20T18:16:21.433Z,19.23
2018-07-20T18:18:49.658Z,19.19
2018-07-20T18:21:18.053Z,19.11
2018-07-20T18:23:46.311Z,18.99
2018-07-20T18:26:14.574Z,18.86
2018-07-20T18:28:42.786Z,18.76
2018-07-20T18:31:11.094Z,18.69
2018-07-20T18:33:39.708Z,18.59
2018-07-20T18:36:08.069Z,18.46
2018-07-20T18:38:36.440Z,18.37
2018-07-20T18:41:05.055Z,18.37
2018-07-20T18:43:33.571Z,18.27
2018-07-20T18:46:02.073Z,18.23
2018-07-20T18:48:30.351Z,18.15
2018-07-20T18:50:59.134Z,18.13
2018-07-20T18:53:27.529Z,18.06
2018-07-20T18:55:55.917Z,17.97
2018-07-20T18:58:24.369Z,17.97
2018-07-20T19:00:52.800Z,17.87
2018-07-20T19:03:21.159Z,17.84
2018-07-20T19:05:49.514Z,17.79
2018-07-20T19:08:17.907Z,17.79
2018-07-20T19:10:47.018Z,17.72
2018-07-20T19:13:15.343Z,17.67
2018-07-20T19:15:44.203Z,17.62
2018-07-20T19:18:12.880Z,17.56
2018-07-20T19:20:41.239Z,17.58
2018-07-20T19:23:09.627Z,17.51
2018-07-20T19:25:38.048Z,17.47
2018-07-20T19:28:06.541Z,17.44
2018-07-20T19:30:34.868Z,17.39
2018-07-20T19:33:03.138Z,17.32
2018-07-20T19:35:31.794Z,17.25
2018-07-20T19:38:00.243Z,17.29
2018-07-20T19:40:28.546Z,17.20
2018-07-20T19:42:56.750Z,17.15
2018-07-20T19:45:24.967Z,17.18
2018-07-20T19:47:53.707Z,17.14
2018-07-20T19:50:22.271Z,17.07
2018-07-20T19:52:50.539Z,17.07
2018-07-20T19:55:18.932Z,17.03
2018-07-20T19:57:47.151Z,16.94
2018-07-20T20:00:15.334Z,16.91
2018-07-20T20:02:43.521Z,16.90
2018-07-20T20:05:11.663Z,16.90
2018-07-20T20:07:40.120Z,16.90
2018-07-20T20:10:08.281Z,16.87
2018-07-20T20:12:36.684Z,16.84
2018-07-20T20:18:02.675Z,16.80
2018-07-20T20:20:30.941Z,16.77
2018-07-20T20:22:59.145Z,16.80
2018-07-20T20:25:27.386Z,16.80
2018-07-20T20:27:55.570Z,16.77
2018-07-20T20:30:23.792Z,16.78
2018-07-20T20:32:52.133Z,16.81
2018-07-20T20:35:20.332Z,16.76
2018-07-20T20:37:48.490Z,16.80
2018-07-20T20:40:16.860Z,16.77
2018-07-20T20:42:45.224Z,16.72
2018-07-20T20:45:13.354Z,16.67
2018-07-20T20:47:41.847Z,16.64
2018-07-20T20:50:10.109Z,16.60
2018-07-20T20:52:38.268Z,16.55
2018-07-20T20:55:06.446Z,16.51
2018-07-20T20:57:34.611Z,16.47
2018-07-20T21:00:02.955Z,16.45
2018-07-20T21:02:31.138Z,16.43
2018-07-20T21:04:59.217Z,16.38
2018-07-20T21:07:27.784Z,16.31
2018-07-20T21:09:56.147Z,16.28
2018-07-20T21:12:24.244Z,16.29
2018-07-20T21:14:52.380Z,16.24
2018-07-20T21:17:20.633Z,16.21
2018-07-20T21:19:48.881Z,16.20
2018-07-20T21:22:17.090Z,16.09
2018-07-20T21:24:45.265Z,16.10
2018-07-20T21:27:13.383Z,16.08
2018-07-20T21:29:41.463Z,16.05
2018-07-20T21:32:09.614Z,15.99
2018-07-20T21:34:37.705Z,15.96
2018-07-20T21:37:05.862Z,15.95
2018-07-20T21:39:34.044Z,15.90
2018-07-20T21:42:02.151Z,15.88
2018-07-20T21:44:30.178Z,15.89
2018-07-20T21:46:58.240Z,15.88
2018-07-20T21:49:26.265Z,15.83
2018-07-20T21:51:54.430Z,15.79
2018-07-20T21:54:22.582Z,15.76
2018-07-20T21:56:50.780Z,15.73
2018-07-20T21:59:18.829Z,15.70
2018-07-20T22:01:46.977Z,15.67
2018-07-20T22:04:14.989Z,15.60
2018-07-20T22:06:43.045Z,15.57
2018-07-20T22:09:11.972Z,15.56
2018-07-20T22:11:40.171Z,15.52
2018-07-20T22:14:08.255Z,15.48
2018-07-20T22:16:36.416Z,15.48
2018-07-20T22:19:04.622Z,15.43
2018-07-20T22:21:32.712Z,15.37
2018-07-20T22:24:00.875Z,15.34
2018-07-20T22:26:28.940Z,15.34
2018-07-20T22:28:57.063Z,15.36
2018-07-20T22:31:25.216Z,15.34
2018-07-20T22:33:53.375Z,15.30
2018-07-20T22:36:21.532Z,15.29
2018-07-20T22:38:49.648Z,15.18
2018-07-20T22:41:17.737Z,15.17
2018-07-20T22:43:45.829Z,15.15
2018-07-20T22:46:14.115Z,15.11
2018-07-20T22:48:42.175Z,15.10
2018-07-20T22:51:10.405Z,15.07
2018-07-20T22:53:38.565Z,15.07
2018-07-20T22:56:06.717Z,15.03
2018-07-20T22:58:34.715Z,15.01
2018-07-20T23:01:02.892Z,14.98
2018-07-20T23:03:30.916Z,14.96
2018-07-20T23:05:58.975Z,14.96
2018-07-20T23:08:27.097Z,14.92
2018-07-20T23:10:55.190Z,14.83
2018-07-20T23:13:23.254Z,14.78
2018-07-20T23:15:51.452Z,14.79
2018-07-20T23:18:19.629Z,14.80
2018-07-20T23:20:47.766Z,14.86
2018-07-20T23:23:15.804Z,14.83
2018-07-20T23:25:43.858Z,14.77
2018-07-20T23:28:11.887Z,14.73
2018-07-20T23:30:39.989Z,14.66
2018-07-20T23:33:08.067Z,14.63
2018-07-20T23:35:36.156Z,14.63
2018-07-20T23:38:04.394Z,14.59
2018-07-20T23:40:32.418Z,14.54
2018-07-20T23:43:00.527Z,14.53
2018-07-20T23:45:28.622Z,14.59
2018-07-20T23:47:56.869Z,14.53
2018-07-20T23:50:24.919Z,14.51
2018-07-20T23:52:52.975Z,14.43
2018-07-20T23:55:21.004Z,14.38
2018-07-20T23:57:49.040Z,14.34
